首页
METAR-TAF:

METAR-TAF

机场 :

Fort Riley, 堪薩斯州, 美国

纬度: 39-06N, 经度: 096-46W, 海拔: 325米

当前天气观测

该预报发布于1小时和4分钟前的00:56 UTC
风速5节,风向西转西北
温度 20°C
湿度 53%
气压 1011 hPa
能見度: 16.1公里
天空无云

METAR: KFRI 230056Z AUTO 29005KT 10SM CLR 20/10 A2985 RMK AO2 SLP104 T02010096 $

时间: 21:00 (02:00 UTC)

预报

该预报发布于5小时和0分钟前的21:00 UTC
预报有效从22日的 21点(UTC)到 24日的 03点(UTC)
风速9节,风向西南
能见度10公里或以上
天空无云
成为
从 22日的 23点(UTC)到 22日的 24点(UTC)
风速9节,风向
能见度10公里或以上
天空无云
成为
从 23日的 08点(UTC)到 23日的 09点(UTC)
风速9节,风向东北
能见度10公里或以上
多云层高于4500英尺
成为
从 23日的 18点(UTC)到 23日的 19点(UTC)
风速12节,风向东转东北
能见度10公里或以上
阴天层高于2500英尺

TAF: KFRI 222100Z 2221/2403 23009KT 9999 SKC 510309 QNH2976INS BECMG 2223/2224 36009KT 9999 SKC 510309 QNH2978INS BECMG 2308/2309 04009KT 9999 BKN045 QNH2990INS BECMG 2318/2319 06012KT 9999 OVC025 QNH2988INS TX22/2222Z TN09/2312Z

超过4000个机场的气象观测和天气预报(METAR&TAF报告)。

可查询的气象台以黄色和红色小点在地图上表示。

将鼠标移到小点上方,可查看气象台名称。

然后点击查看天气观测和预报。

如需切换地图:点击带黑十字的绿色按钮放大地图;点击带横线的绿色按钮缩小地图;或者点击绿色箭头查看邻近地区的地图。


METAR-TAF: